Gregoria Perez de Denis, Argentina
Current Conditions -  °F | °C
As of 7:00 PM on Thursday 23 Oct 2014 (Local Time) from SARC Reporting Station
Clear Clear  
Wind Chill: 86°   Ceiling: Unl
Heat Index: 86°   Visibility: 5mi
Dew Point: 59°   Wind: 6mph
Humidity: 40%   Direction: 70°ENE
Pressure: 29.85"   Gusts: NA
Location:  28.43°S, 61.58°W
Report Text: SARC 232200Z 07005KT 8000 NSC 30/15 Q1011
Loading
Personal Weather Stations






























Interactive Weather Map New forecast layout! Learn more

10-Day Weather Forecast

Advertisements
Track Severe Weather on mobile